Time;durP1;ratioP1;P1;durP2;ratioP2;P2;SDS_P1;SDS_P2;PMS_P1;PMS_P2;Temp;Humidity;BMP_temperature;BMP_pressure;BME280_temperature;BME280_humidity;BME280_pressure;Samples;Min_cycle;Max_cycle;Signal;HPM_P1;HPM_P2
2022/11/25 00:01:54;;;;;;;0.50;0.40;;;8.50;99.90;;;;;;5058072;28;20194;-82
2022/11/25 00:04:21;;;;;;;1.80;0.77;;;8.50;99.90;;;;;;5057023;28;20254;-81
2022/11/25 00:06:47;;;;;;;0.70;0.70;;;8.50;99.90;;;;;;5058236;28;20212;-81
2022/11/25 00:09:14;;;;;;;0.50;0.40;;;8.50;99.90;;;;;;5058184;28;20225;-82
2022/11/25 00:11:43;;;;;;;3.85;1.25;;;8.60;99.90;;;;;;5058016;28;20226;-80
2022/11/25 00:14:14;;;;;;;0.50;0.50;;;8.50;99.90;;;;;;5057645;28;20206;-82
2022/11/25 00:16:40;;;;;;;4.10;0.95;;;8.60;99.90;;;;;;5057980;28;20696;-80
2022/11/25 00:19:09;;;;;;;0.60;0.50;;;8.60;99.90;;;;;;5057397;28;20278;-82
2022/11/25 00:21:36;;;;;;;1.50;1.40;;;8.60;99.90;;;;;;5057437;28;20282;-82
2022/11/25 00:24:05;;;;;;;1.63;0.60;;;8.60;99.90;;;;;;5057650;28;20201;-81
2022/11/25 00:26:33;;;;;;;1.77;0.50;;;8.60;99.90;;;;;;5057895;28;20246;-81
2022/11/25 00:29:01;;;;;;;5.07;1.35;;;8.70;99.90;;;;;;5057673;28;20278;-82
2022/11/25 00:31:31;;;;;;;2.05;0.85;;;8.60;99.90;;;;;;5057498;28;20568;-82
2022/11/25 00:33:59;;;;;;;0.70;0.70;;;8.70;99.90;;;;;;5057148;28;20197;-83
2022/11/25 00:36:27;;;;;;;3.67;1.33;;;8.70;99.90;;;;;;5058001;28;20210;-82
2022/11/25 00:38:55;;;;;;;0.50;0.40;;;8.70;99.90;;;;;;5056781;28;20305;-82
2022/11/25 00:46:55;;;;;;;2.30;0.82;;;8.70;99.90;;;;;;5057498;28;20221;-81
2022/11/25 00:49:22;;;;;;;0.80;0.70;;;8.70;99.90;;;;;;5056966;28;20221;-82
2022/11/25 00:51:48;;;;;;;0.73;0.73;;;8.70;99.90;;;;;;5057392;28;20191;-81
2022/11/25 00:54:15;;;;;;;0.60;0.60;;;8.70;99.90;;;;;;5056435;28;20730;-82
2022/11/25 00:56:43;;;;;;;0.50;0.50;;;8.70;99.90;;;;;;5055982;28;20289;-81
2022/11/25 00:59:10;;;;;;;0.50;0.40;;;8.70;99.90;;;;;;5057560;28;20298;-82
2022/11/25 01:01:37;;;;;;;0.50;0.40;;;8.70;99.90;;;;;;5056794;28;20222;-83
2022/11/25 01:04:06;;;;;;;0.50;0.40;;;8.70;99.90;;;;;;5056221;28;20997;-81
2022/11/25 01:06:33;;;;;;;0.50;0.40;;;8.70;99.90;;;;;;5056639;28;20310;-80
2022/11/25 01:09:00;;;;;;;0.85;0.85;;;8.70;99.90;;;;;;5056797;28;20218;-81
2022/11/25 01:11:27;;;;;;;0.70;0.55;;;8.70;99.90;;;;;;5056898;28;20199;-82
2022/11/25 01:13:55;;;;;;;0.75;0.75;;;8.70;99.90;;;;;;5056356;28;20572;-80
2022/11/25 01:16:23;;;;;;;0.50;0.40;;;8.70;99.90;;;;;;5056364;28;20325;-81
2022/11/25 01:18:50;;;;;;;3.20;0.70;;;8.60;99.90;;;;;;5056779;28;20194;-81
2022/11/25 01:21:21;;;;;;;1.15;0.57;;;8.60;99.90;;;;;;5057162;28;20195;-83
2022/11/25 01:23:49;;;;;;;4.00;0.50;;;8.60;99.90;;;;;;5056488;28;20189;-81
2022/11/25 01:26:18;;;;;;;3.42;1.95;;;8.60;99.90;;;;;;5055744;28;20306;-79
2022/11/25 01:28:45;;;;;;;0.60;0.50;;;8.70;99.90;;;;;;5056681;28;20210;-81
2022/11/25 01:31:14;;;;;;;2.75;0.60;;;8.70;99.90;;;;;;5057213;28;20198;-81
2022/11/25 01:33:42;;;;;;;0.60;0.50;;;8.70;99.90;;;;;;5056830;28;20283;-81
2022/11/25 01:36:11;;;;;;;0.70;0.60;;;8.70;99.90;;;;;;5055480;28;20215;-82
2022/11/25 01:38:39;;;;;;;3.53;0.68;;;8.70;99.90;;;;;;5056392;28;20194;-81
2022/11/25 01:41:08;;;;;;;0.80;0.60;;;8.70;99.90;;;;;;5056920;28;20660;-82
2022/11/25 01:43:35;;;;;;;0.60;0.50;;;8.70;99.90;;;;;;5056161;28;20198;-82
2022/11/25 01:46:08;;;;;;;0.77;0.75;;;8.70;99.90;;;;;;5055784;28;20237;-82
2022/11/25 01:48:41;;;;;;;0.95;0.95;;;8.70;99.90;;;;;;5056384;28;20305;-83
2022/11/25 01:51:18;;;;;;;0.70;0.70;;;8.70;99.90;;;;;;5055866;28;20552;-81
2022/11/25 01:53:47;;;;;;;0.50;0.40;;;8.80;99.90;;;;;;5056044;28;20194;-82
2022/11/25 01:56:15;;;;;;;1.25;1.10;;;8.80;99.90;;;;;;5055320;28;20221;-81
2022/11/25 01:58:44;;;;;;;0.50;0.40;;;8.80;99.90;;;;;;5055751;28;20201;-82
2022/11/25 02:01:11;;;;;;;0.60;0.40;;;8.90;99.90;;;;;;5055880;28;20285;-81
2022/11/25 02:03:41;;;;;;;1.13;0.70;;;8.90;99.90;;;;;;5055377;28;20191;-81
2022/11/25 02:06:13;;;;;;;0.50;0.40;;;9.00;99.90;;;;;;5055178;28;20218;-82
2022/11/25 02:08:41;;;;;;;4.65;2.38;;;9.00;99.90;;;;;;5055640;28;20294;-82
2022/11/25 02:11:10;;;;;;;2.67;2.47;;;9.00;99.90;;;;;;5056132;28;20200;-83
2022/11/25 02:13:38;;;;;;;0.50;0.40;;;9.10;99.90;;;;;;5055732;28;20208;-82
2022/11/25 02:16:05;;;;;;;2.67;0.60;;;9.10;99.90;;;;;;5055386;28;20791;-81
2022/11/25 02:18:32;;;;;;;2.67;0.70;;;9.10;99.90;;;;;;5055739;28;20273;-81
2022/11/25 02:20:59;;;;;;;3.65;1.17;;;9.20;99.90;;;;;;5055460;28;20201;-83
2022/11/25 02:23:33;;;;;;;0.50;0.50;;;9.20;99.90;;;;;;5055370;28;20274;-78
2022/11/25 02:26:02;;;;;;;2.22;0.77;;;9.20;99.90;;;;;;5054572;28;20305;-80
2022/11/25 02:28:31;;;;;;;0.80;0.60;;;9.20;99.90;;;;;;5055310;28;20750;-81
2022/11/25 02:30:59;;;;;;;0.55;0.52;;;9.20;99.90;;;;;;5055463;28;20217;-82
2022/11/25 02:33:26;;;;;;;0.70;0.60;;;9.20;99.90;;;;;;5055803;28;20563;-80
2022/11/25 02:35:56;;;;;;;2.58;0.98;;;9.30;99.90;;;;;;5054432;28;20217;-82
2022/11/25 02:38:29;;;;;;;0.93;0.70;;;9.30;99.90;;;;;;5055054;28;20608;-81
2022/11/25 02:41:00;;;;;;;0.50;0.50;;;9.40;99.90;;;;;;5055550;28;20269;-81
2022/11/25 02:43:29;;;;;;;0.70;0.60;;;9.50;99.90;;;;;;5055489;28;20301;-80
2022/11/25 02:45:58;;;;;;;0.50;0.50;;;9.50;99.90;;;;;;5053844;28;20249;-81
2022/11/25 02:48:27;;;;;;;1.73;0.75;;;9.50;99.90;;;;;;5055642;28;20257;-81
2022/11/25 02:50:54;;;;;;;0.50;0.40;;;9.50;99.90;;;;;;5055317;28;20575;-82
2022/11/25 02:53:21;;;;;;;26.90;1.25;;;9.50;99.90;;;;;;5055372;28;20194;-80
2022/11/25 02:55:48;;;;;;;0.50;0.40;;;9.40;99.90;;;;;;5054631;28;20243;-82
2022/11/25 02:58:15;;;;;;;1.15;1.05;;;9.40;99.90;;;;;;5055549;28;20556;-80
2022/11/25 03:00:44;;;;;;;0.80;0.70;;;9.40;99.90;;;;;;5055228;28;20198;-83
2022/11/25 03:03:11;;;;;;;0.50;0.40;;;9.40;99.90;;;;;;5055140;28;20651;-82
2022/11/25 03:05:38;;;;;;;0.73;0.73;;;9.40;99.90;;;;;;5053826;28;20290;-80
2022/11/25 03:08:06;;;;;;;0.50;0.40;;;9.40;99.90;;;;;;5054961;28;20201;-82
2022/11/25 03:10:33;;;;;;;1.75;0.85;;;9.30;99.90;;;;;;5055204;28;20554;-82
2022/11/25 03:13:00;;;;;;;0.50;0.50;;;9.30;99.90;;;;;;5054973;28;20201;-81
2022/11/25 03:15:26;;;;;;;0.93;0.93;;;9.20;99.90;;;;;;5054387;28;20226;-80
2022/11/25 03:17:55;;;;;;;0.50;0.40;;;9.20;99.90;;;;;;5054399;28;20285;-81
2022/11/25 03:20:23;;;;;;;3.08;1.38;;;9.10;99.90;;;;;;5054580;28;20195;-77
2022/11/25 03:22:49;;;;;;;0.50;0.40;;;9.10;99.90;;;;;;5054715;28;20628;-82
2022/11/25 03:25:17;;;;;;;0.50;0.50;;;9.00;99.90;;;;;;5053450;28;20635;-80
2022/11/25 03:27:44;;;;;;;0.70;0.60;;;8.90;99.90;;;;;;5054767;28;20288;-80
2022/11/25 03:30:17;;;;;;;0.50;0.40;;;8.90;99.90;;;;;;5057059;28;20310;-82
2022/11/25 03:32:44;;;;;;;0.52;0.52;;;8.90;99.90;;;;;;5058047;28;20213;-80
2022/11/25 03:35:13;;;;;;;0.50;0.40;;;8.90;99.90;;;;;;5056940;28;20309;-80
2022/11/25 03:37:40;;;;;;;0.50;0.50;;;8.90;99.90;;;;;;5057174;28;20744;-81
2022/11/25 03:40:08;;;;;;;0.50;0.40;;;8.90;99.90;;;;;;5055811;28;20689;-81
2022/11/25 03:42:35;;;;;;;0.65;0.65;;;8.90;99.90;;;;;;5055343;28;20199;-81
2022/11/25 03:45:02;;;;;;;7.03;1.30;;;8.90;99.90;;;;;;5054734;28;20712;-81
2022/11/25 03:47:29;;;;;;;0.80;0.80;;;8.90;99.90;;;;;;5055224;28;20647;-81
2022/11/25 03:49:56;;;;;;;0.65;0.57;;;9.00;99.90;;;;;;5054745;28;20257;-79
2022/11/25 03:52:24;;;;;;;0.50;0.43;;;8.90;99.90;;;;;;5054592;28;20201;-81
2022/11/25 03:54:51;;;;;;;0.73;0.70;;;9.00;99.90;;;;;;5053655;28;20317;-80
2022/11/25 03:57:18;;;;;;;0.55;0.50;;;9.00;99.90;;;;;;5054896;28;20226;-78
2022/11/25 03:59:45;;;;;;;8.13;1.35;;;8.90;99.90;;;;;;5053986;28;20267;-82
2022/11/25 04:02:13;;;;;;;0.52;0.45;;;8.90;99.90;;;;;;5054987;28;20199;-80
2022/11/25 04:04:40;;;;;;;1.27;1.10;;;8.90;99.90;;;;;;5053810;28;20222;-81
2022/11/25 04:07:06;;;;;;;1.25;0.95;;;8.90;99.90;;;;;;5054868;28;20267;-81
2022/11/25 04:09:35;;;;;;;5.78;2.47;;;8.90;99.90;;;;;;5054446;28;20305;-81
2022/11/25 04:14:46;;;;;;;0.50;0.50;;;9.00;99.90;;;;;;5056541;28;20217;-80
2022/11/25 04:17:13;;;;;;;0.50;0.40;;;8.90;99.90;;;;;;5058697;28;20341;-81
2022/11/25 04:19:40;;;;;;;1.75;1.02;;;8.90;99.90;;;;;;5057605;28;20225;-81
2022/11/25 04:22:07;;;;;;;0.60;0.50;;;8.90;99.90;;;;;;5058194;28;20289;-80
2022/11/25 04:24:35;;;;;;;1.80;1.40;;;8.90;99.90;;;;;;5058246;28;20225;-80
2022/11/25 04:27:02;;;;;;;1.92;1.30;;;8.90;99.90;;;;;;5058134;28;20201;-79
2022/11/25 04:29:29;;;;;;;6.47;1.52;;;8.90;99.90;;;;;;5058635;28;20225;-80
2022/11/25 04:31:56;;;;;;;0.82;0.82;;;8.80;99.90;;;;;;5058664;28;20563;-80
2022/11/25 04:34:23;;;;;;;0.50;0.40;;;8.80;99.90;;;;;;5057825;28;20190;-81
2022/11/25 04:36:49;;;;;;;1.15;1.15;;;8.80;99.90;;;;;;5057710;28;20684;-80
2022/11/25 04:39:16;;;;;;;2.25;1.20;;;8.70;99.90;;;;;;5058181;28;20186;-80
2022/11/25 04:41:44;;;;;;;0.60;0.60;;;8.80;99.90;;;;;;5057779;28;20195;-80
2022/11/25 04:44:11;;;;;;;0.50;0.40;;;8.80;99.90;;;;;;5057218;28;20202;-80
2022/11/25 04:46:43;;;;;;;0.50;0.40;;;8.70;99.90;;;;;;5058811;28;20297;-82
2022/11/25 04:49:11;;;;;;;0.50;0.40;;;8.70;99.90;;;;;;5059435;28;20291;-80
2022/11/25 04:51:38;;;;;;;0.60;0.50;;;8.70;99.90;;;;;;5058248;28;20201;-80
2022/11/25 04:54:05;;;;;;;1.05;1.05;;;8.70;99.90;;;;;;5056948;28;20201;-80
2022/11/25 04:56:32;;;;;;;0.90;0.65;;;8.70;99.90;;;;;;5057492;28;20214;-81
2022/11/25 05:01:44;;;;;;;0.65;0.63;;;8.70;99.90;;;;;;5056663;28;20193;-79
2022/11/25 05:04:11;;;;;;;0.50;0.40;;;8.70;99.90;;;;;;5056222;28;20198;-78
2022/11/25 05:06:37;;;;;;;0.50;0.40;;;8.70;99.90;;;;;;5058354;28;20286;-79
2022/11/25 05:09:04;;;;;;;1.13;1.13;;;8.70;99.90;;;;;;5062967;28;20221;-80
2022/11/25 05:11:31;;;;;;;2.42;2.22;;;8.70;99.90;;;;;;5059172;28;20198;-79
2022/11/25 05:13:59;;;;;;;0.93;0.75;;;8.60;99.90;;;;;;5060250;28;20575;-78
2022/11/25 05:16:26;;;;;;;0.50;0.40;;;8.60;99.90;;;;;;5063036;28;20223;-79
2022/11/25 05:18:55;;;;;;;5.07;1.48;;;8.60;99.90;;;;;;5061879;28;20201;-80
2022/11/25 05:21:22;;;;;;;0.63;0.63;;;8.60;99.90;;;;;;5062933;28;20194;-80
2022/11/25 05:23:49;;;;;;;0.50;0.40;;;8.60;99.90;;;;;;5060634;28;20194;-79
2022/11/25 05:26:15;;;;;;;0.50;0.40;;;8.60;99.90;;;;;;5061044;28;20334;-80
2022/11/25 05:28:42;;;;;;;0.50;0.43;;;8.60;99.90;;;;;;5061635;28;20203;-81
2022/11/25 05:31:11;;;;;;;0.60;0.50;;;8.60;99.90;;;;;;5056118;28;20233;-80
2022/11/25 05:33:37;;;;;;;0.63;0.52;;;8.60;99.90;;;;;;5056475;28;20254;-80
2022/11/25 05:36:05;;;;;;;0.80;0.80;;;8.60;99.90;;;;;;5056080;28;20215;-79
2022/11/25 05:38:31;;;;;;;0.50;0.47;;;8.60;99.90;;;;;;5056688;28;20221;-80
2022/11/25 05:41:01;;;;;;;0.50;0.50;;;8.60;99.90;;;;;;5056209;28;20201;-81
2022/11/25 05:43:28;;;;;;;0.50;0.40;;;8.60;99.90;;;;;;5056430;28;20194;-76
2022/11/25 05:45:55;;;;;;;0.60;0.40;;;8.50;99.90;;;;;;5054620;28;20219;-81
2022/11/25 05:48:23;;;;;;;0.50;0.50;;;8.50;99.90;;;;;;5056025;28;20194;-79
2022/11/25 05:50:50;;;;;;;0.50;0.40;;;8.50;99.90;;;;;;5056163;28;20234;-81
2022/11/25 05:53:17;;;;;;;0.50;0.40;;;8.40;99.90;;;;;;5056043;28;20276;-81
2022/11/25 05:55:44;;;;;;;0.50;0.40;;;8.40;99.90;;;;;;5054674;28;20215;-80
2022/11/25 05:58:11;;;;;;;0.63;0.60;;;8.40;99.90;;;;;;5056098;28;20270;-81
2022/11/25 06:00:38;;;;;;;2.50;2.40;;;8.40;99.90;;;;;;5034827;28;20195;-81
2022/11/25 06:03:04;;;;;;;0.60;0.52;;;8.40;99.90;;;;;;5017028;28;20204;-81
2022/11/25 06:05:34;;;;;;;0.77;0.77;;;8.40;99.90;;;;;;5032064;28;20277;-81
2022/11/25 06:08:01;;;;;;;3.38;1.40;;;8.40;99.90;;;;;;5036615;28;20286;-81
2022/11/25 06:10:28;;;;;;;1.30;1.23;;;8.40;99.90;;;;;;5035912;28;20222;-80
2022/11/25 06:12:54;;;;;;;2.85;1.35;;;8.40;99.90;;;;;;5035872;28;20195;-80
2022/11/25 06:15:21;;;;;;;0.70;0.60;;;8.40;99.90;;;;;;5033848;28;20227;-82
2022/11/25 06:17:48;;;;;;;0.60;0.50;;;8.40;99.90;;;;;;5034963;28;20198;-81
2022/11/25 06:20:15;;;;;;;6.55;1.15;;;8.40;99.90;;;;;;5036273;28;20225;-80
2022/11/25 06:22:43;;;;;;;0.70;0.68;;;8.40;99.90;;;;;;5035422;28;20286;-82
2022/11/25 06:25:10;;;;;;;1.42;1.35;;;8.40;99.90;;;;;;5034247;28;20211;-80
2022/11/25 06:27:45;;;;;;;0.50;0.40;;;8.40;99.90;;;;;;5025998;28;20210;-82
2022/11/25 06:30:13;;;;;;;16.73;2.25;;;8.40;99.90;;;;;;5016031;28;20242;-81
2022/11/25 06:32:40;;;;;;;2.65;0.70;;;8.40;99.90;;;;;;5016178;28;20654;-81
2022/11/25 06:35:07;;;;;;;0.50;0.40;;;8.40;99.90;;;;;;5014991;28;20307;-82
2022/11/25 06:37:34;;;;;;;0.50;0.40;;;8.30;99.90;;;;;;5013780;28;20231;-80
2022/11/25 06:40:03;;;;;;;0.82;0.73;;;8.30;99.90;;;;;;5015808;28;20227;-82
2022/11/25 06:42:30;;;;;;;2.05;1.10;;;8.30;99.90;;;;;;5016063;28;20206;-81
2022/11/25 06:44:56;;;;;;;2.22;0.80;;;8.40;99.90;;;;;;5014622;28;20219;-82
2022/11/25 06:47:23;;;;;;;0.52;0.52;;;8.30;99.90;;;;;;5015952;28;20283;-82
2022/11/25 06:49:50;;;;;;;0.50;0.50;;;8.30;99.90;;;;;;5015605;28;20279;-81
2022/11/25 06:52:17;;;;;;;0.50;0.40;;;8.30;99.90;;;;;;5015039;28;20291;-81
2022/11/25 06:54:44;;;;;;;0.50;0.47;;;8.30;99.90;;;;;;5014978;28;20307;-81
2022/11/25 06:57:17;;;;;;;0.50;0.40;;;8.30;99.90;;;;;;5015461;28;20208;-81
2022/11/25 06:59:44;;;;;;;1.02;0.82;;;8.20;99.90;;;;;;5013861;28;20227;-81
2022/11/25 07:02:12;;;;;;;3.17;2.65;;;8.20;99.90;;;;;;5015364;28;20294;-81
2022/11/25 07:04:39;;;;;;;0.50;0.40;;;8.20;99.90;;;;;;5012880;28;20748;-81
2022/11/25 07:07:06;;;;;;;1.27;1.25;;;8.20;99.90;;;;;;5014236;28;20202;-83
2022/11/25 07:09:33;;;;;;;0.50;0.40;;;8.20;99.90;;;;;;5014446;28;20222;-82
2022/11/25 07:12:00;;;;;;;0.50;0.40;;;8.30;99.90;;;;;;5014406;28;20282;-81
2022/11/25 07:14:28;;;;;;;0.50;0.40;;;8.30;99.90;;;;;;5013228;28;20192;-82
2022/11/25 07:16:55;;;;;;;0.50;0.50;;;8.30;99.90;;;;;;5014086;28;20188;-82
2022/11/25 07:19:22;;;;;;;0.82;0.60;;;8.30;99.90;;;;;;5013824;28;20200;-82
2022/11/25 07:21:49;;;;;;;0.50;0.40;;;8.30;99.90;;;;;;5013891;28;20685;-80
2022/11/25 07:24:17;;;;;;;1.40;0.85;;;8.40;99.90;;;;;;5013447;28;20206;-79
2022/11/25 07:26:45;;;;;;;0.65;0.65;;;8.40;99.90;;;;;;5014316;28;20291;-82
2022/11/25 07:29:14;;;;;;;1.48;1.38;;;8.40;99.90;;;;;;5015360;28;20202;-81
2022/11/25 07:31:43;;;;;;;0.50;0.40;;;8.40;99.90;;;;;;5015286;28;20204;-82
2022/11/25 07:34:13;;;;;;;0.50;0.47;;;8.40;99.90;;;;;;5014030;28;20294;-81
2022/11/25 07:36:40;;;;;;;0.98;0.93;;;8.40;99.90;;;;;;5014860;28;20302;-80
2022/11/25 07:39:12;;;;;;;0.50;0.40;;;8.40;99.90;;;;;;5013019;28;20206;-80
2022/11/25 07:41:39;;;;;;;0.80;0.75;;;8.40;99.90;;;;;;5013855;28;20364;-81
2022/11/25 07:44:07;;;;;;;0.50;0.40;;;8.30;99.90;;;;;;5013746;28;20200;-80
2022/11/25 07:46:36;;;;;;;1.35;1.25;;;8.30;99.90;;;;;;5015344;28;20216;-80
2022/11/25 07:49:06;;;;;;;0.50;0.40;;;8.30;99.90;;;;;;5017808;28;20593;-81
2022/11/25 07:51:36;;;;;;;0.50;0.40;;;8.30;99.90;;;;;;5017731;28;20220;-81
2022/11/25 07:54:05;;;;;;;0.65;0.65;;;8.20;99.90;;;;;;5017428;28;20206;-82
2022/11/25 07:56:34;;;;;;;0.50;0.50;;;8.20;99.90;;;;;;5017961;28;20230;-81
2022/11/25 07:59:01;;;;;;;0.80;0.80;;;8.30;99.90;;;;;;5017874;28;20196;-82
2022/11/25 08:01:28;;;;;;;1.02;0.93;;;8.30;99.90;;;;;;5017991;28;20194;-82
2022/11/25 08:03:55;;;;;;;0.60;0.50;;;8.30;99.90;;;;;;5017926;28;20196;-78
2022/11/25 08:06:26;;;;;;;0.60;0.52;;;8.30;99.90;;;;;;5017686;28;20220;-80
2022/11/25 08:08:54;;;;;;;1.20;1.20;;;8.30;99.90;;;;;;5018327;28;20219;-81
2022/11/25 08:11:24;;;;;;;1.25;0.50;;;8.30;99.90;;;;;;5017829;28;20306;-80
2022/11/25 08:13:51;;;;;;;0.50;0.40;;;8.20;99.90;;;;;;5017738;28;20298;-79
2022/11/25 08:16:20;;;;;;;0.85;0.85;;;8.30;99.90;;;;;;5017942;28;20310;-82
2022/11/25 08:18:47;;;;;;;0.50;0.40;;;8.30;99.90;;;;;;5017961;28;20211;-80
2022/11/25 08:21:18;;;;;;;0.80;0.80;;;8.40;99.90;;;;;;5018293;28;20196;-79
2022/11/25 08:23:47;;;;;;;1.33;0.93;;;8.50;99.90;;;;;;5017697;28;20665;-80
2022/11/25 08:26:17;;;;;;;2.88;1.13;;;8.70;99.90;;;;;;5017223;28;20216;-80
2022/11/25 08:28:44;;;;;;;4.05;3.75;;;8.80;99.90;;;;;;5017753;28;20192;-81
2022/11/25 08:31:13;;;;;;;2.15;0.93;;;8.80;99.90;;;;;;5018045;28;20288;-81
2022/11/25 08:33:40;;;;;;;0.50;0.40;;;8.80;99.90;;;;;;5017777;28;20282;-80
2022/11/25 08:36:08;;;;;;;1.23;1.05;;;8.80;99.90;;;;;;5016510;28;20224;-79
2022/11/25 08:38:35;;;;;;;1.25;1.15;;;8.70;99.90;;;;;;5015970;28;20203;-80
2022/11/25 08:41:03;;;;;;;0.82;0.80;;;8.70;99.90;;;;;;5017592;28;20196;-79
2022/11/25 08:43:30;;;;;;;0.60;0.60;;;8.80;99.90;;;;;;5017117;28;20286;-81
2022/11/25 08:45:57;;;;;;;1.75;1.65;;;9.20;99.90;;;;;;5016437;28;20224;-80
2022/11/25 08:48:24;;;;;;;1.00;1.00;;;9.60;99.90;;;;;;5018205;28;20196;-80
2022/11/25 08:50:52;;;;;;;1.60;1.05;;;9.60;99.90;;;;;;5017692;28;20597;-80
2022/11/25 08:53:21;;;;;;;0.60;0.40;;;9.40;99.90;;;;;;5017917;28;20724;-82
2022/11/25 08:55:48;;;;;;;0.70;0.70;;;9.40;99.90;;;;;;5016743;28;20849;-81
2022/11/25 08:58:16;;;;;;;1.05;0.93;;;9.70;99.90;;;;;;5016577;28;20200;-81
2022/11/25 09:00:44;;;;;;;0.90;0.85;;;10.10;99.90;;;;;;5017046;28;20210;-80
2022/11/25 09:03:12;;;;;;;0.98;0.88;;;10.70;99.90;;;;;;5016669;28;20577;-79
2022/11/25 09:05:40;;;;;;;0.75;0.50;;;11.10;99.90;;;;;;5016008;28;20880;-80
2022/11/25 09:08:10;;;;;;;8.00;2.60;;;11.30;99.90;;;;;;5016651;28;20311;-83
2022/11/25 09:10:37;;;;;;;4.23;1.17;;;11.40;99.90;;;;;;5016069;28;20303;-82
2022/11/25 09:13:04;;;;;;;0.50;0.40;;;11.40;99.90;;;;;;5015906;28;20447;-81
2022/11/25 09:15:33;;;;;;;1.38;1.38;;;11.40;99.90;;;;;;5016526;28;20255;-83
2022/11/25 09:18:00;;;;;;;0.50;0.40;;;11.50;99.90;;;;;;5018999;28;20628;-84
2022/11/25 09:20:28;;;;;;;0.80;0.80;;;11.60;99.90;;;;;;5019731;28;20443;-82
2022/11/25 09:22:55;;;;;;;0.50;0.40;;;11.50;99.90;;;;;;5018096;28;20259;-82
2022/11/25 09:25:22;;;;;;;6.30;1.08;;;11.40;99.90;;;;;;5017074;28;20216;-83
2022/11/25 09:27:49;;;;;;;0.50;0.40;;;11.30;99.90;;;;;;5017737;28;20196;-82
2022/11/25 09:30:16;;;;;;;4.55;1.80;;;11.00;99.90;;;;;;5017517;28;20212;-83
2022/11/25 09:32:48;;;;;;;5.28;1.25;;;10.90;99.90;;;;;;5017226;28;20291;-81
2022/11/25 09:35:14;;;;;;;0.50;0.40;;;11.00;99.90;;;;;;5017567;28;20212;-84
2022/11/25 09:37:41;;;;;;;1.42;0.85;;;11.10;99.90;;;;;;5017859;28;20192;-82
2022/11/25 09:40:17;;;;;;;5.97;0.70;;;11.00;99.90;;;;;;5017399;28;20196;-82
2022/11/25 09:48:48;;;;;;;4.00;1.60;;;10.60;99.90;;;;;;5015783;28;20180;-83
2022/11/25 09:51:21;;;;;;;0.50;0.40;;;10.30;99.90;;;;;;5014370;28;20212;-80
2022/11/25 09:53:52;;;;;;;2.75;1.10;;;10.30;99.90;;;;;;5015480;28;20215;-80
2022/11/25 09:56:31;;;;;;;0.60;0.40;;;10.40;99.90;;;;;;5016150;28;20216;-82
2022/11/25 09:59:02;;;;;;;0.70;0.70;;;10.50;99.90;;;;;;5014961;28;20180;-83
2022/11/25 10:01:31;;;;;;;3.33;1.25;;;10.50;99.90;;;;;;5015222;28;20199;-81
2022/11/25 10:04:04;;;;;;;0.50;0.40;;;10.50;99.90;;;;;;5015423;28;20249;-84
2022/11/25 10:06:36;;;;;;;5.93;1.73;;;10.60;99.90;;;;;;5016574;28;20589;-83
2022/11/25 10:09:11;;;;;;;0.50;0.40;;;10.50;99.90;;;;;;5015120;28;20183;-83
2022/11/25 10:11:49;;;;;;;0.50;0.50;;;10.50;99.90;;;;;;5014409;28;20294;-81
2022/11/25 10:14:28;;;;;;;0.50;0.40;;;10.60;99.90;;;;;;5015031;28;20282;-83
2022/11/25 10:17:01;;;;;;;1.15;1.05;;;10.60;99.90;;;;;;5018865;28;20263;-82
2022/11/25 10:19:42;;;;;;;0.93;0.93;;;10.50;99.90;;;;;;5022895;28;20271;-81
2022/11/25 10:22:21;;;;;;;0.50;0.40;;;10.50;99.90;;;;;;5016319;28;20184;-81
2022/11/25 10:24:49;;;;;;;0.70;0.68;;;10.70;99.90;;;;;;5013275;28;20216;-82
2022/11/25 10:27:22;;;;;;;3.92;1.95;;;10.80;99.90;;;;;;5013551;28;20200;-81
2022/11/25 10:30:00;;;;;;;1.15;1.05;;;10.80;99.90;;;;;;5014905;28;20184;-82
2022/11/25 10:32:35;;;;;;;6.20;1.38;;;11.00;99.90;;;;;;5015872;28;20211;-84
2022/11/25 10:35:12;;;;;;;1.23;1.13;;;11.30;99.90;;;;;;5016776;28;20222;-81
2022/11/25 10:37:44;;;;;;;22.37;1.90;;;11.80;99.90;;;;;;5015869;28;20554;-81
2022/11/25 10:40:16;;;;;;;0.80;0.60;;;11.80;99.90;;;;;;5014543;28;20427;-81
2022/11/25 10:42:43;;;;;;;1.38;1.27;;;11.90;99.90;;;;;;5014567;28;20267;-81
2022/11/25 10:45:11;;;;;;;1.27;1.17;;;12.00;99.90;;;;;;5013933;28;20777;-80
2022/11/25 10:48:00;;;;;;;3.63;1.87;;;11.80;99.90;;;;;;5015263;28;20485;-80
2022/11/25 10:50:34;;;;;;;0.90;0.90;;;11.70;99.90;;;;;;5014934;28;20602;-78
2022/11/25 10:53:09;;;;;;;2.45;0.98;;;11.70;99.90;;;;;;5015380;28;20609;-80
2022/11/25 10:55:36;;;;;;;1.03;0.90;;;11.80;99.90;;;;;;5013579;28;20219;-82
2022/11/25 10:58:25;;;;;;;0.65;0.65;;;11.60;99.90;;;;;;5014405;28;20447;-82
2022/11/25 11:01:03;;;;;;;1.88;1.48;;;11.60;99.90;;;;;;5021696;28;20192;-82
2022/11/25 11:03:30;;;;;;;0.70;0.70;;;11.60;99.90;;;;;;5025811;28;20212;-80
2022/11/25 11:05:58;;;;;;;2.58;0.95;;;11.70;99.90;;;;;;5020408;28;20550;-82
2022/11/25 11:08:27;;;;;;;0.50;0.50;;;11.50;99.90;;;;;;5027529;28;20286;-81
2022/11/25 11:11:17;;;;;;;0.50;0.40;;;11.50;99.90;;;;;;5016077;28;20220;-81
2022/11/25 11:13:45;;;;;;;2.90;2.30;;;11.50;99.90;;;;;;5017706;28;20283;-79
2022/11/25 11:16:27;;;;;;;0.60;0.50;;;11.30;99.90;;;;;;5017808;28;20478;-81
2022/11/25 11:18:55;;;;;;;1.47;0.97;;;11.40;99.90;;;;;;5019766;28;20419;-83
2022/11/25 11:21:28;;;;;;;1.92;1.48;;;11.50;99.90;;;;;;5016854;28;20442;-82
2022/11/25 11:23:56;;;;;;;1.50;0.95;;;11.60;99.90;;;;;;5024169;28;20199;-84
2022/11/25 11:26:25;;;;;;;1.57;1.47;;;11.60;99.90;;;;;;5020497;28;20215;-82
2022/11/25 11:29:00;;;;;;;0.60;0.60;;;11.60;99.90;;;;;;5019805;28;20453;-81
2022/11/25 11:31:32;;;;;;;0.70;0.57;;;11.50;99.90;;;;;;5017709;28;20486;-79
2022/11/25 11:34:06;;;;;;;3.45;1.23;;;11.60;99.90;;;;;;5018316;28;20527;-83
2022/11/25 11:36:53;;;;;;;5.10;2.00;;;11.70;99.90;;;;;;5021582;28;20215;-82
2022/11/25 11:39:50;;;;;;;5.93;1.17;;;11.90;99.90;;;;;;5018744;28;20187;-80
2022/11/25 11:42:26;;;;;;;1.73;1.63;;;12.10;99.90;;;;;;5022380;28;20545;-80
2022/11/25 11:45:03;;;;;;;1.00;0.83;;;12.10;99.90;;;;;;5019303;28;20459;-80
2022/11/25 11:47:39;;;;;;;0.90;0.80;;;12.30;99.90;;;;;;5018286;28;20451;-79
2022/11/25 11:50:25;;;;;;;0.80;0.80;;;12.40;99.90;;;;;;5017362;28;20509;-79
2022/11/25 11:52:58;;;;;;;1.37;1.27;;;12.30;99.90;;;;;;5017194;28;20474;-79
2022/11/25 11:55:50;;;;;;;0.50;0.40;;;12.30;99.90;;;;;;5016304;28;20504;-79
2022/11/25 11:58:35;;;;;;;3.63;1.63;;;12.30;99.90;;;;;;5016876;28;20927;-79
2022/11/25 12:01:13;;;;;;;1.02;0.50;;;12.50;99.90;;;;;;5017608;28;20423;-79
2022/11/25 12:03:44;;;;;;;2.20;1.03;;;12.70;99.90;;;;;;5016886;28;20600;-79
2022/11/25 12:06:11;;;;;;;0.50;0.40;;;12.60;99.90;;;;;;5016377;28;20459;-79
2022/11/25 12:08:46;;;;;;;2.10;1.13;;;12.20;99.90;;;;;;5018867;28;20430;-79
2022/11/25 12:11:18;;;;;;;0.50;0.40;;;12.00;99.90;;;;;;5016845;28;20481;-80
2022/11/25 12:13:51;;;;;;;4.30;1.37;;;11.90;99.90;;;;;;5016572;28;20206;-78
2022/11/25 12:16:24;;;;;;;0.50;0.40;;;11.90;99.90;;;;;;5016513;28;20505;-80
2022/11/25 12:18:55;;;;;;;1.10;1.00;;;12.00;99.90;;;;;;5017085;28;20206;-80
2022/11/25 12:21:41;;;;;;;3.08;1.67;;;12.00;99.90;;;;;;5016826;28;20434;-80
2022/11/25 12:24:18;;;;;;;0.60;0.60;;;12.00;99.90;;;;;;5016456;28;20191;-80
2022/11/25 12:26:51;;;;;;;0.87;0.87;;;12.10;99.90;;;;;;5017507;28;20510;-77
2022/11/25 12:29:28;;;;;;;1.83;1.73;;;12.20;99.90;;;;;;5016262;28;20423;-80
2022/11/25 12:32:09;;;;;;;0.50;0.40;;;12.30;99.90;;;;;;5017215;28;20473;-80
2022/11/25 12:34:43;;;;;;;1.73;1.27;;;12.50;99.90;;;;;;5015202;28;20477;-80
2022/11/25 12:37:14;;;;;;;1.10;1.00;;;12.50;99.90;;;;;;5022131;28;20445;-78
2022/11/25 12:39:49;;;;;;;1.30;1.20;;;12.50;99.90;;;;;;5023804;28;20423;-82
2022/11/25 12:42:22;;;;;;;0.60;0.60;;;12.40;99.90;;;;;;5018837;28;20518;-83
2022/11/25 12:44:58;;;;;;;1.33;0.63;;;12.30;99.90;;;;;;5017330;28;20512;-82
2022/11/25 12:47:25;;;;;;;0.70;0.70;;;12.20;99.90;;;;;;5018644;28;20477;-80
2022/11/25 12:49:54;;;;;;;1.00;0.77;;;12.10;99.90;;;;;;5017212;28;20446;-83
2022/11/25 12:52:42;;;;;;;0.50;0.40;;;12.00;99.90;;;;;;5015975;28;21040;-79
2022/11/25 12:55:13;;;;;;;0.50;0.40;;;12.00;99.90;;;;;;5014657;28;20222;-79
2022/11/25 12:58:22;;;;;;;0.50;0.40;;;12.00;99.90;;;;;;5014816;28;20180;-79
2022/11/25 13:01:33;;;;;;;0.70;0.50;;;12.10;99.90;;;;;;4980660;28;20202;-78
2022/11/25 13:04:33;;;;;;;1.00;0.90;;;12.00;99.90;;;;;;5022877;28;20227;-80
2022/11/25 13:07:21;;;;;;;3.90;1.60;;;11.90;99.90;;;;;;5020027;28;20425;-80
2022/11/25 13:10:18;;;;;;;2.55;1.13;;;12.00;99.90;;;;;;5021609;28;20534;-80
2022/11/25 13:12:53;;;;;;;1.60;1.50;;;12.00;99.90;;;;;;5018970;28;20220;-80
2022/11/25 13:15:26;;;;;;;0.50;0.40;;;12.10;99.90;;;;;;5014340;28;20561;-78
2022/11/25 13:17:58;;;;;;;0.60;0.57;;;12.20;99.90;;;;;;5016801;28;20531;-80
2022/11/25 13:20:47;;;;;;;0.50;0.40;;;12.20;99.90;;;;;;5015602;28;20447;-80
2022/11/25 13:23:29;;;;;;;0.50;0.40;;;12.20;99.90;;;;;;5016716;28;20455;-80
2022/11/25 13:26:31;;;;;;;0.50;0.40;;;12.50;99.90;;;;;;5014706;28;20463;-80